sensor_id;sensor_type;location;lat;lon;timestamp;P1;durP1;ratioP1;P2;durP2;ratioP2
669;SDS011;317;48.758;9.302;2022-08-25T00:01:48;2.97;;;2.77;;
669;SDS011;317;48.758;9.302;2022-08-25T00:04:18;3.60;;;3.30;;
669;SDS011;317;48.758;9.302;2022-08-25T00:06:46;3.53;;;3.33;;
669;SDS011;317;48.758;9.302;2022-08-25T00:09:14;3.37;;;2.90;;
669;SDS011;317;48.758;9.302;2022-08-25T00:11:43;3.40;;;3.20;;
669;SDS011;317;48.758;9.302;2022-08-25T00:14:11;3.30;;;3.10;;
669;SDS011;317;48.758;9.302;2022-08-25T00:16:40;4.20;;;3.80;;
669;SDS011;317;48.758;9.302;2022-08-25T00:19:09;3.67;;;3.03;;
669;SDS011;317;48.758;9.302;2022-08-25T00:21:39;3.33;;;3.13;;
669;SDS011;317;48.758;9.302;2022-08-25T00:24:07;3.90;;;3.60;;
669;SDS011;317;48.758;9.302;2022-08-25T00:26:37;3.70;;;3.50;;
669;SDS011;317;48.758;9.302;2022-08-25T00:29:05;3.90;;;3.60;;
669;SDS011;317;48.758;9.302;2022-08-25T00:31:33;3.70;;;3.50;;
669;SDS011;317;48.758;9.302;2022-08-25T00:34:01;3.90;;;3.60;;
669;SDS011;317;48.758;9.302;2022-08-25T00:36:28;3.10;;;2.90;;
669;SDS011;317;48.758;9.302;2022-08-25T00:38:57;4.17;;;3.60;;
669;SDS011;317;48.758;9.302;2022-08-25T00:41:23;4.50;;;4.00;;
669;SDS011;317;48.758;9.302;2022-08-25T00:43:52;4.50;;;3.70;;
669;SDS011;317;48.758;9.302;2022-08-25T00:46:22;3.60;;;3.30;;
669;SDS011;317;48.758;9.302;2022-08-25T00:48:51;3.73;;;3.43;;
669;SDS011;317;48.758;9.302;2022-08-25T00:51:24;4.40;;;4.00;;
669;SDS011;317;48.758;9.302;2022-08-25T00:53:58;4.67;;;4.20;;
669;SDS011;317;48.758;9.302;2022-08-25T00:56:26;4.53;;;4.20;;
669;SDS011;317;48.758;9.302;2022-08-25T00:58:55;3.97;;;3.57;;
669;SDS011;317;48.758;9.302;2022-08-25T01:01:25;4.90;;;4.50;;
669;SDS011;317;48.758;9.302;2022-08-25T01:03:52;3.63;;;3.33;;
669;SDS011;317;48.758;9.302;2022-08-25T01:06:19;3.90;;;3.60;;
669;SDS011;317;48.758;9.302;2022-08-25T01:08:46;3.70;;;3.40;;
669;SDS011;317;48.758;9.302;2022-08-25T01:11:14;3.93;;;3.63;;
669;SDS011;317;48.758;9.302;2022-08-25T01:13:41;3.63;;;3.43;;
669;SDS011;317;48.758;9.302;2022-08-25T01:16:10;6.60;;;3.93;;
669;SDS011;317;48.758;9.302;2022-08-25T01:18:47;4.60;;;4.13;;
669;SDS011;317;48.758;9.302;2022-08-25T01:21:21;4.27;;;3.87;;
669;SDS011;317;48.758;9.302;2022-08-25T01:23:49;5.07;;;4.57;;
669;SDS011;317;48.758;9.302;2022-08-25T01:26:17;4.80;;;4.50;;
669;SDS011;317;48.758;9.302;2022-08-25T01:28:47;4.40;;;4.10;;
669;SDS011;317;48.758;9.302;2022-08-25T01:31:32;4.70;;;4.30;;
669;SDS011;317;48.758;9.302;2022-08-25T01:34:02;5.63;;;5.23;;
669;SDS011;317;48.758;9.302;2022-08-25T01:36:31;4.50;;;4.10;;
669;SDS011;317;48.758;9.302;2022-08-25T01:38:59;4.50;;;4.10;;
669;SDS011;317;48.758;9.302;2022-08-25T01:41:29;5.13;;;4.73;;
669;SDS011;317;48.758;9.302;2022-08-25T01:44:03;4.70;;;4.30;;
669;SDS011;317;48.758;9.302;2022-08-25T01:46:31;4.57;;;4.13;;
669;SDS011;317;48.758;9.302;2022-08-25T01:48:58;5.23;;;4.83;;
669;SDS011;317;48.758;9.302;2022-08-25T01:51:27;5.40;;;5.00;;
669;SDS011;317;48.758;9.302;2022-08-25T01:53:59;4.93;;;4.50;;
669;SDS011;317;48.758;9.302;2022-08-25T01:56:26;3.90;;;3.60;;
669;SDS011;317;48.758;9.302;2022-08-25T01:58:53;5.50;;;5.00;;
669;SDS011;317;48.758;9.302;2022-08-25T02:01:21;5.30;;;4.90;;
669;SDS011;317;48.758;9.302;2022-08-25T02:03:51;4.93;;;4.60;;
669;SDS011;317;48.758;9.302;2022-08-25T02:06:20;4.90;;;4.50;;
669;SDS011;317;48.758;9.302;2022-08-25T02:08:49;5.10;;;4.80;;
669;SDS011;317;48.758;9.302;2022-08-25T02:11:18;5.10;;;4.70;;
669;SDS011;317;48.758;9.302;2022-08-25T02:13:46;5.73;;;5.13;;
669;SDS011;317;48.758;9.302;2022-08-25T02:16:14;5.00;;;4.70;;
669;SDS011;317;48.758;9.302;2022-08-25T02:18:44;5.10;;;4.80;;
669;SDS011;317;48.758;9.302;2022-08-25T02:21:11;5.33;;;4.93;;
669;SDS011;317;48.758;9.302;2022-08-25T02:23:38;5.63;;;5.20;;
669;SDS011;317;48.758;9.302;2022-08-25T02:26:05;5.20;;;4.80;;
669;SDS011;317;48.758;9.302;2022-08-25T02:28:34;5.37;;;4.97;;
669;SDS011;317;48.758;9.302;2022-08-25T02:31:02;5.60;;;5.20;;
669;SDS011;317;48.758;9.302;2022-08-25T02:33:29;5.73;;;5.10;;
669;SDS011;317;48.758;9.302;2022-08-25T02:35:56;5.07;;;4.67;;
669;SDS011;317;48.758;9.302;2022-08-25T02:38:24;5.70;;;5.20;;
669;SDS011;317;48.758;9.302;2022-08-25T02:40:51;6.53;;;6.03;;
669;SDS011;317;48.758;9.302;2022-08-25T02:43:18;6.00;;;5.50;;
669;SDS011;317;48.758;9.302;2022-08-25T02:45:46;5.40;;;5.00;;
669;SDS011;317;48.758;9.302;2022-08-25T02:48:13;5.10;;;4.80;;
669;SDS011;317;48.758;9.302;2022-08-25T02:50:40;5.80;;;5.37;;
669;SDS011;317;48.758;9.302;2022-08-25T02:53:11;6.07;;;5.47;;
669;SDS011;317;48.758;9.302;2022-08-25T02:55:38;8.07;;;6.00;;
669;SDS011;317;48.758;9.302;2022-08-25T02:58:05;5.70;;;5.20;;
669;SDS011;317;48.758;9.302;2022-08-25T03:00:33;5.40;;;4.90;;
669;SDS011;317;48.758;9.302;2022-08-25T03:03:01;5.50;;;5.10;;
669;SDS011;317;48.758;9.302;2022-08-25T03:05:28;6.33;;;5.90;;
669;SDS011;317;48.758;9.302;2022-08-25T03:07:56;5.97;;;5.50;;
669;SDS011;317;48.758;9.302;2022-08-25T03:10:23;6.33;;;5.73;;
669;SDS011;317;48.758;9.302;2022-08-25T03:12:51;5.33;;;4.90;;
669;SDS011;317;48.758;9.302;2022-08-25T03:15:17;5.67;;;5.20;;
669;SDS011;317;48.758;9.302;2022-08-25T03:17:49;5.93;;;5.40;;
669;SDS011;317;48.758;9.302;2022-08-25T03:20:18;5.87;;;5.20;;
669;SDS011;317;48.758;9.302;2022-08-25T03:22:46;6.03;;;5.50;;
669;SDS011;317;48.758;9.302;2022-08-25T03:25:13;6.10;;;5.70;;
669;SDS011;317;48.758;9.302;2022-08-25T03:27:59;5.97;;;5.37;;
669;SDS011;317;48.758;9.302;2022-08-25T03:30:26;5.97;;;5.57;;
669;SDS011;317;48.758;9.302;2022-08-25T03:32:54;6.43;;;5.03;;
669;SDS011;317;48.758;9.302;2022-08-25T03:35:22;6.10;;;5.50;;
669;SDS011;317;48.758;9.302;2022-08-25T03:37:49;6.27;;;5.80;;
669;SDS011;317;48.758;9.302;2022-08-25T03:40:21;6.03;;;5.53;;
669;SDS011;317;48.758;9.302;2022-08-25T03:42:49;6.43;;;5.50;;
669;SDS011;317;48.758;9.302;2022-08-25T03:45:16;6.00;;;5.57;;
669;SDS011;317;48.758;9.302;2022-08-25T03:47:44;6.00;;;5.40;;
669;SDS011;317;48.758;9.302;2022-08-25T03:50:13;6.00;;;5.50;;
669;SDS011;317;48.758;9.302;2022-08-25T03:52:44;5.83;;;5.40;;
669;SDS011;317;48.758;9.302;2022-08-25T03:55:17;6.40;;;5.93;;
669;SDS011;317;48.758;9.302;2022-08-25T03:57:44;5.40;;;5.00;;
669;SDS011;317;48.758;9.302;2022-08-25T04:00:11;5.40;;;5.00;;
669;SDS011;317;48.758;9.302;2022-08-25T04:02:39;5.40;;;4.90;;
669;SDS011;317;48.758;9.302;2022-08-25T04:05:07;6.20;;;5.60;;
669;SDS011;317;48.758;9.302;2022-08-25T04:07:34;5.40;;;5.10;;
669;SDS011;317;48.758;9.302;2022-08-25T04:10:03;6.00;;;5.50;;
669;SDS011;317;48.758;9.302;2022-08-25T04:12:30;6.67;;;6.27;;
669;SDS011;317;48.758;9.302;2022-08-25T04:14:57;6.17;;;5.67;;
669;SDS011;317;48.758;9.302;2022-08-25T04:17:25;6.23;;;5.77;;
669;SDS011;317;48.758;9.302;2022-08-25T04:19:52;6.43;;;5.93;;
669;SDS011;317;48.758;9.302;2022-08-25T04:22:19;6.20;;;5.73;;
669;SDS011;317;48.758;9.302;2022-08-25T04:24:46;6.17;;;5.67;;
669;SDS011;317;48.758;9.302;2022-08-25T04:27:14;6.47;;;5.90;;
669;SDS011;317;48.758;9.302;2022-08-25T04:29:41;6.40;;;5.90;;
669;SDS011;317;48.758;9.302;2022-08-25T04:32:08;6.60;;;6.20;;
669;SDS011;317;48.758;9.302;2022-08-25T04:34:35;6.00;;;5.60;;
669;SDS011;317;48.758;9.302;2022-08-25T04:37:02;6.83;;;6.23;;
669;SDS011;317;48.758;9.302;2022-08-25T04:39:31;6.10;;;5.70;;
669;SDS011;317;48.758;9.302;2022-08-25T04:41:58;6.30;;;5.87;;
669;SDS011;317;48.758;9.302;2022-08-25T04:44:28;6.50;;;5.90;;
669;SDS011;317;48.758;9.302;2022-08-25T04:46:55;6.83;;;6.33;;
669;SDS011;317;48.758;9.302;2022-08-25T04:49:23;7.03;;;6.53;;
669;SDS011;317;48.758;9.302;2022-08-25T04:51:49;7.00;;;6.40;;
669;SDS011;317;48.758;9.302;2022-08-25T04:54:17;6.40;;;5.90;;
669;SDS011;317;48.758;9.302;2022-08-25T04:56:46;6.40;;;5.90;;
669;SDS011;317;48.758;9.302;2022-08-25T04:59:13;7.13;;;6.63;;
669;SDS011;317;48.758;9.302;2022-08-25T05:01:44;6.40;;;5.87;;
669;SDS011;317;48.758;9.302;2022-08-25T05:04:13;9.30;;;6.83;;
669;SDS011;317;48.758;9.302;2022-08-25T05:06:41;6.77;;;6.17;;
669;SDS011;317;48.758;9.302;2022-08-25T05:09:09;6.70;;;6.20;;
669;SDS011;317;48.758;9.302;2022-08-25T05:11:36;6.43;;;5.83;;
669;SDS011;317;48.758;9.302;2022-08-25T05:14:03;6.03;;;5.43;;
669;SDS011;317;48.758;9.302;2022-08-25T05:16:36;7.80;;;5.70;;
669;SDS011;317;48.758;9.302;2022-08-25T05:19:07;7.63;;;6.93;;
669;SDS011;317;48.758;9.302;2022-08-25T05:21:34;6.47;;;5.97;;
669;SDS011;317;48.758;9.302;2022-08-25T05:24:02;6.00;;;5.60;;
669;SDS011;317;48.758;9.302;2022-08-25T05:26:30;7.63;;;6.93;;
669;SDS011;317;48.758;9.302;2022-08-25T05:28:58;7.27;;;6.67;;
669;SDS011;317;48.758;9.302;2022-08-25T05:31:26;6.97;;;6.30;;
669;SDS011;317;48.758;9.302;2022-08-25T05:33:54;7.17;;;6.57;;
669;SDS011;317;48.758;9.302;2022-08-25T05:36:23;7.10;;;6.50;;
669;SDS011;317;48.758;9.302;2022-08-25T05:38:51;6.83;;;6.33;;
669;SDS011;317;48.758;9.302;2022-08-25T05:41:19;6.70;;;6.10;;
669;SDS011;317;48.758;9.302;2022-08-25T05:43:47;7.00;;;6.40;;
669;SDS011;317;48.758;9.302;2022-08-25T05:46:15;7.20;;;6.50;;
669;SDS011;317;48.758;9.302;2022-08-25T05:48:43;7.00;;;6.50;;
669;SDS011;317;48.758;9.302;2022-08-25T05:51:11;7.63;;;7.03;;
669;SDS011;317;48.758;9.302;2022-08-25T05:53:41;6.17;;;5.57;;
669;SDS011;317;48.758;9.302;2022-08-25T05:56:10;6.30;;;5.80;;
669;SDS011;317;48.758;9.302;2022-08-25T05:58:38;11.30;;;6.70;;
669;SDS011;317;48.758;9.302;2022-08-25T06:01:05;6.27;;;5.77;;
669;SDS011;317;48.758;9.302;2022-08-25T06:03:50;8.33;;;7.40;;
669;SDS011;317;48.758;9.302;2022-08-25T06:06:18;9.83;;;6.80;;
669;SDS011;317;48.758;9.302;2022-08-25T06:08:46;8.23;;;6.60;;
669;SDS011;317;48.758;9.302;2022-08-25T06:11:13;6.87;;;6.27;;
669;SDS011;317;48.758;9.302;2022-08-25T06:13:41;7.33;;;6.70;;
669;SDS011;317;48.758;9.302;2022-08-25T06:16:09;8.73;;;7.13;;
669;SDS011;317;48.758;9.302;2022-08-25T06:18:36;7.70;;;6.90;;
669;SDS011;317;48.758;9.302;2022-08-25T06:21:07;8.07;;;7.30;;
669;SDS011;317;48.758;9.302;2022-08-25T06:23:35;8.50;;;7.57;;
669;SDS011;317;48.758;9.302;2022-08-25T06:26:05;9.10;;;7.30;;
669;SDS011;317;48.758;9.302;2022-08-25T06:28:34;7.63;;;6.90;;
669;SDS011;317;48.758;9.302;2022-08-25T06:31:01;7.50;;;6.80;;
669;SDS011;317;48.758;9.302;2022-08-25T06:33:28;7.63;;;6.47;;
669;SDS011;317;48.758;9.302;2022-08-25T06:35:56;9.80;;;7.30;;
669;SDS011;317;48.758;9.302;2022-08-25T06:38:23;8.43;;;7.07;;
669;SDS011;317;48.758;9.302;2022-08-25T06:40:50;7.97;;;7.27;;
669;SDS011;317;48.758;9.302;2022-08-25T06:43:19;7.47;;;6.63;;
669;SDS011;317;48.758;9.302;2022-08-25T06:45:46;7.10;;;6.50;;
669;SDS011;317;48.758;9.302;2022-08-25T06:48:13;6.70;;;6.20;;
669;SDS011;317;48.758;9.302;2022-08-25T06:50:41;7.60;;;6.90;;
669;SDS011;317;48.758;9.302;2022-08-25T06:53:09;6.73;;;6.10;;
669;SDS011;317;48.758;9.302;2022-08-25T06:55:36;7.90;;;6.50;;
669;SDS011;317;48.758;9.302;2022-08-25T06:58:03;8.03;;;6.50;;
669;SDS011;317;48.758;9.302;2022-08-25T07:00:33;7.13;;;6.53;;
669;SDS011;317;48.758;9.302;2022-08-25T07:02:59;6.50;;;5.90;;
669;SDS011;317;48.758;9.302;2022-08-25T07:05:28;6.87;;;5.80;;
669;SDS011;317;48.758;9.302;2022-08-25T07:07:57;7.00;;;6.40;;
669;SDS011;317;48.758;9.302;2022-08-25T07:10:27;7.03;;;5.70;;
669;SDS011;317;48.758;9.302;2022-08-25T07:12:56;6.83;;;6.23;;
669;SDS011;317;48.758;9.302;2022-08-25T07:15:23;6.53;;;6.00;;
669;SDS011;317;48.758;9.302;2022-08-25T07:17:53;5.70;;;5.20;;
669;SDS011;317;48.758;9.302;2022-08-25T07:20:20;5.77;;;4.97;;
669;SDS011;317;48.758;9.302;2022-08-25T07:22:46;6.70;;;5.10;;
669;SDS011;317;48.758;9.302;2022-08-25T07:25:13;6.57;;;4.97;;
669;SDS011;317;48.758;9.302;2022-08-25T07:27:41;7.20;;;6.23;;
669;SDS011;317;48.758;9.302;2022-08-25T07:30:08;7.03;;;6.43;;
669;SDS011;317;48.758;9.302;2022-08-25T07:32:35;5.47;;;5.00;;
669;SDS011;317;48.758;9.302;2022-08-25T07:35:04;5.53;;;5.10;;
669;SDS011;317;48.758;9.302;2022-08-25T07:37:41;6.87;;;5.90;;
669;SDS011;317;48.758;9.302;2022-08-25T07:40:11;7.90;;;7.20;;
669;SDS011;317;48.758;9.302;2022-08-25T07:42:40;6.27;;;5.73;;
669;SDS011;317;48.758;9.302;2022-08-25T07:45:08;8.93;;;6.37;;
669;SDS011;317;48.758;9.302;2022-08-25T07:47:35;6.87;;;6.27;;
669;SDS011;317;48.758;9.302;2022-08-25T07:50:05;5.33;;;4.83;;
669;SDS011;317;48.758;9.302;2022-08-25T07:52:33;6.17;;;5.67;;
669;SDS011;317;48.758;9.302;2022-08-25T07:55:00;7.00;;;6.33;;
669;SDS011;317;48.758;9.302;2022-08-25T07:57:27;6.13;;;5.47;;
669;SDS011;317;48.758;9.302;2022-08-25T07:59:54;6.70;;;6.20;;
669;SDS011;317;48.758;9.302;2022-08-25T08:02:22;8.33;;;6.33;;
669;SDS011;317;48.758;9.302;2022-08-25T08:04:51;6.50;;;6.10;;
669;SDS011;317;48.758;9.302;2022-08-25T08:07:20;6.27;;;5.77;;
669;SDS011;317;48.758;9.302;2022-08-25T08:09:48;6.17;;;5.77;;
669;SDS011;317;48.758;9.302;2022-08-25T08:12:18;5.80;;;5.30;;
669;SDS011;317;48.758;9.302;2022-08-25T08:14:45;5.67;;;5.20;;
669;SDS011;317;48.758;9.302;2022-08-25T08:17:12;6.37;;;5.87;;
669;SDS011;317;48.758;9.302;2022-08-25T08:19:39;7.60;;;5.93;;
669;SDS011;317;48.758;9.302;2022-08-25T08:22:06;5.63;;;5.27;;
669;SDS011;317;48.758;9.302;2022-08-25T08:24:36;6.20;;;5.70;;
669;SDS011;317;48.758;9.302;2022-08-25T08:27:04;6.20;;;5.80;;
669;SDS011;317;48.758;9.302;2022-08-25T08:29:32;6.10;;;5.70;;
669;SDS011;317;48.758;9.302;2022-08-25T08:32:00;6.87;;;6.10;;
669;SDS011;317;48.758;9.302;2022-08-25T08:34:27;6.50;;;5.87;;
669;SDS011;317;48.758;9.302;2022-08-25T08:36:54;6.27;;;5.67;;
669;SDS011;317;48.758;9.302;2022-08-25T08:39:22;6.50;;;6.00;;
669;SDS011;317;48.758;9.302;2022-08-25T08:41:54;6.13;;;5.73;;
669;SDS011;317;48.758;9.302;2022-08-25T08:44:53;10.50;;;4.90;;
669;SDS011;317;48.758;9.302;2022-08-25T08:47:31;6.07;;;5.30;;
669;SDS011;317;48.758;9.302;2022-08-25T08:50:09;5.40;;;5.10;;
669;SDS011;317;48.758;9.302;2022-08-25T08:52:49;6.27;;;5.70;;
669;SDS011;317;48.758;9.302;2022-08-25T08:55:22;6.63;;;6.13;;
669;SDS011;317;48.758;9.302;2022-08-25T08:57:55;5.00;;;4.60;;
669;SDS011;317;48.758;9.302;2022-08-25T09:00:24;5.97;;;5.47;;
669;SDS011;317;48.758;9.302;2022-08-25T09:02:53;4.97;;;4.57;;
669;SDS011;317;48.758;9.302;2022-08-25T09:05:25;5.87;;;5.47;;
669;SDS011;317;48.758;9.302;2022-08-25T09:07:54;4.87;;;4.57;;
669;SDS011;317;48.758;9.302;2022-08-25T09:10:25;5.63;;;5.20;;
669;SDS011;317;48.758;9.302;2022-08-25T09:13:00;5.43;;;5.03;;
669;SDS011;317;48.758;9.302;2022-08-25T09:15:35;6.03;;;5.53;;
669;SDS011;317;48.758;9.302;2022-08-25T09:18:29;6.17;;;5.60;;
669;SDS011;317;48.758;9.302;2022-08-25T09:21:07;6.00;;;5.50;;
669;SDS011;317;48.758;9.302;2022-08-25T09:23:39;5.03;;;4.63;;
669;SDS011;317;48.758;9.302;2022-08-25T09:26:24;6.33;;;5.50;;
669;SDS011;317;48.758;9.302;2022-08-25T09:29:02;5.83;;;5.43;;
669;SDS011;317;48.758;9.302;2022-08-25T09:31:36;8.67;;;5.80;;
669;SDS011;317;48.758;9.302;2022-08-25T09:34:07;6.03;;;5.43;;
669;SDS011;317;48.758;9.302;2022-08-25T09:36:39;5.23;;;4.73;;
669;SDS011;317;48.758;9.302;2022-08-25T09:39:06;4.83;;;4.43;;
669;SDS011;317;48.758;9.302;2022-08-25T09:41:34;5.33;;;4.80;;
669;SDS011;317;48.758;9.302;2022-08-25T09:44:11;6.23;;;5.77;;
669;SDS011;317;48.758;9.302;2022-08-25T09:46:53;8.50;;;5.43;;
669;SDS011;317;48.758;9.302;2022-08-25T09:49:29;5.90;;;5.40;;
669;SDS011;317;48.758;9.302;2022-08-25T09:58:03;5.67;;;5.20;;
669;SDS011;317;48.758;9.302;2022-08-25T10:00:43;5.17;;;4.77;;
669;SDS011;317;48.758;9.302;2022-08-25T10:03:11;4.87;;;4.40;;
669;SDS011;317;48.758;9.302;2022-08-25T10:05:55;5.53;;;5.00;;
669;SDS011;317;48.758;9.302;2022-08-25T10:08:29;5.37;;;4.40;;
669;SDS011;317;48.758;9.302;2022-08-25T10:10:59;4.93;;;4.63;;
669;SDS011;317;48.758;9.302;2022-08-25T10:13:33;6.50;;;5.30;;
669;SDS011;317;48.758;9.302;2022-08-25T10:16:09;5.40;;;4.90;;
669;SDS011;317;48.758;9.302;2022-08-25T10:18:38;5.07;;;4.77;;
669;SDS011;317;48.758;9.302;2022-08-25T10:21:06;4.90;;;4.50;;
669;SDS011;317;48.758;9.302;2022-08-25T10:23:37;5.17;;;4.77;;
669;SDS011;317;48.758;9.302;2022-08-25T10:26:11;5.83;;;5.37;;
669;SDS011;317;48.758;9.302;2022-08-25T10:28:51;4.50;;;4.20;;
669;SDS011;317;48.758;9.302;2022-08-25T10:31:31;4.77;;;4.37;;
669;SDS011;317;48.758;9.302;2022-08-25T10:34:08;5.63;;;5.03;;
669;SDS011;317;48.758;9.302;2022-08-25T10:36:49;8.17;;;4.70;;
669;SDS011;317;48.758;9.302;2022-08-25T10:39:27;5.40;;;5.00;;
669;SDS011;317;48.758;9.302;2022-08-25T10:42:02;4.57;;;3.83;;
669;SDS011;317;48.758;9.302;2022-08-25T10:44:45;4.00;;;3.70;;
669;SDS011;317;48.758;9.302;2022-08-25T10:47:54;4.07;;;3.67;;
669;SDS011;317;48.758;9.302;2022-08-25T10:50:37;4.73;;;4.33;;
669;SDS011;317;48.758;9.302;2022-08-25T10:53:12;4.90;;;4.50;;
669;SDS011;317;48.758;9.302;2022-08-25T10:55:50;4.30;;;4.07;;
669;SDS011;317;48.758;9.302;2022-08-25T10:58:28;5.10;;;4.70;;
669;SDS011;317;48.758;9.302;2022-08-25T11:01:34;3.67;;;3.47;;
669;SDS011;317;48.758;9.302;2022-08-25T11:04:13;4.60;;;3.87;;
669;SDS011;317;48.758;9.302;2022-08-25T11:06:46;3.63;;;3.43;;
669;SDS011;317;48.758;9.302;2022-08-25T11:09:19;4.43;;;4.13;;
669;SDS011;317;48.758;9.302;2022-08-25T11:11:51;4.50;;;3.20;;
669;SDS011;317;48.758;9.302;2022-08-25T11:14:21;4.50;;;4.20;;
669;SDS011;317;48.758;9.302;2022-08-25T11:16:56;5.53;;;4.00;;
669;SDS011;317;48.758;9.302;2022-08-25T11:19:29;4.93;;;3.80;;
669;SDS011;317;48.758;9.302;2022-08-25T11:22:00;4.77;;;4.47;;
669;SDS011;317;48.758;9.302;2022-08-25T11:24:35;4.53;;;4.13;;
669;SDS011;317;48.758;9.302;2022-08-25T11:27:11;4.13;;;3.83;;
669;SDS011;317;48.758;9.302;2022-08-25T11:29:44;5.63;;;5.13;;
669;SDS011;317;48.758;9.302;2022-08-25T11:32:21;6.00;;;5.60;;
669;SDS011;317;48.758;9.302;2022-08-25T11:34:50;5.67;;;5.30;;
669;SDS011;317;48.758;9.302;2022-08-25T11:37:19;6.17;;;5.87;;
669;SDS011;317;48.758;9.302;2022-08-25T11:39:58;6.83;;;6.53;;
669;SDS011;317;48.758;9.302;2022-08-25T11:42:38;5.87;;;5.47;;
669;SDS011;317;48.758;9.302;2022-08-25T11:45:20;8.03;;;7.63;;
669;SDS011;317;48.758;9.302;2022-08-25T11:48:05;3.53;;;3.33;;
669;SDS011;317;48.758;9.302;2022-08-25T11:50:55;5.60;;;4.80;;
669;SDS011;317;48.758;9.302;2022-08-25T11:53:26;4.87;;;4.57;;
669;SDS011;317;48.758;9.302;2022-08-25T11:55:55;3.80;;;3.60;;
669;SDS011;317;48.758;9.302;2022-08-25T11:58:31;4.50;;;4.10;;
669;SDS011;317;48.758;9.302;2022-08-25T12:01:03;4.30;;;3.90;;
669;SDS011;317;48.758;9.302;2022-08-25T12:03:49;5.60;;;5.30;;
669;SDS011;317;48.758;9.302;2022-08-25T12:06:38;3.93;;;3.50;;
669;SDS011;317;48.758;9.302;2022-08-25T12:12:37;3.97;;;3.50;;
669;SDS011;317;48.758;9.302;2022-08-25T12:15:26;4.20;;;3.90;;
669;SDS011;317;48.758;9.302;2022-08-25T12:18:07;3.90;;;3.60;;
669;SDS011;317;48.758;9.302;2022-08-25T12:23:40;5.50;;;5.20;;
669;SDS011;317;48.758;9.302;2022-08-25T12:26:11;3.57;;;3.27;;
669;SDS011;317;48.758;9.302;2022-08-25T12:28:47;3.90;;;3.60;;
669;SDS011;317;48.758;9.302;2022-08-25T12:31:38;3.97;;;3.67;;
669;SDS011;317;48.758;9.302;2022-08-25T12:34:22;3.60;;;3.30;;
669;SDS011;317;48.758;9.302;2022-08-25T12:37:01;4.00;;;3.40;;
669;SDS011;317;48.758;9.302;2022-08-25T12:39:33;3.40;;;3.10;;
669;SDS011;317;48.758;9.302;2022-08-25T12:42:04;3.57;;;3.27;;
669;SDS011;317;48.758;9.302;2022-08-25T12:44:35;3.83;;;3.50;;
669;SDS011;317;48.758;9.302;2022-08-25T12:47:11;3.57;;;3.20;;
669;SDS011;317;48.758;9.302;2022-08-25T12:49:51;3.40;;;3.20;;
669;SDS011;317;48.758;9.302;2022-08-25T12:52:19;3.93;;;3.03;;
669;SDS011;317;48.758;9.302;2022-08-25T12:54:51;3.87;;;3.50;;
669;SDS011;317;48.758;9.302;2022-08-25T12:57:28;3.47;;;3.17;;
669;SDS011;317;48.758;9.302;2022-08-25T13:00:09;3.35;;;3.00;;
669;SDS011;317;48.758;9.302;2022-08-25T13:08:37;3.83;;;2.65;;
669;SDS011;317;48.758;9.302;2022-08-25T13:11:19;3.10;;;2.90;;
669;SDS011;317;48.758;9.302;2022-08-25T13:13:50;3.10;;;2.90;;
669;SDS011;317;48.758;9.302;2022-08-25T13:16:22;2.63;;;2.50;;
669;SDS011;317;48.758;9.302;2022-08-25T13:18:51;3.30;;;3.00;;
669;SDS011;317;48.758;9.302;2022-08-25T13:21:23;2.80;;;2.60;;
669;SDS011;317;48.758;9.302;2022-08-25T13:23:55;2.60;;;2.40;;
669;SDS011;317;48.758;9.302;2022-08-25T13:26:27;2.88;;;2.63;;
669;SDS011;317;48.758;9.302;2022-08-25T13:28:57;5.13;;;2.45;;
669;SDS011;317;48.758;9.302;2022-08-25T13:31:26;4.32;;;2.92;;
669;SDS011;317;48.758;9.302;2022-08-25T13:33:54;3.03;;;2.83;;
669;SDS011;317;48.758;9.302;2022-08-25T13:36:23;3.30;;;2.92;;
669;SDS011;317;48.758;9.302;2022-08-25T13:39:10;3.03;;;2.78;;
669;SDS011;317;48.758;9.302;2022-08-25T13:41:44;2.88;;;2.63;;
669;SDS011;317;48.758;9.302;2022-08-25T13:44:12;2.60;;;2.50;;
669;SDS011;317;48.758;9.302;2022-08-25T13:46:40;3.33;;;3.03;;
669;SDS011;317;48.758;9.302;2022-08-25T13:49:08;3.90;;;2.88;;
669;SDS011;317;48.758;9.302;2022-08-25T13:51:35;3.22;;;2.65;;
669;SDS011;317;48.758;9.302;2022-08-25T13:54:06;2.55;;;2.45;;
669;SDS011;317;48.758;9.302;2022-08-25T13:56:36;2.80;;;2.60;;
669;SDS011;317;48.758;9.302;2022-08-25T13:59:17;2.80;;;2.55;;
669;SDS011;317;48.758;9.302;2022-08-25T14:01:48;3.10;;;2.88;;
669;SDS011;317;48.758;9.302;2022-08-25T14:04:20;2.55;;;2.45;;
669;SDS011;317;48.758;9.302;2022-08-25T14:07:03;3.28;;;2.63;;
669;SDS011;317;48.758;9.302;2022-08-25T14:09:50;3.05;;;2.45;;
669;SDS011;317;48.758;9.302;2022-08-25T14:12:32;3.17;;;2.75;;
669;SDS011;317;48.758;9.302;2022-08-25T14:15:06;3.95;;;2.50;;
669;SDS011;317;48.758;9.302;2022-08-25T14:17:36;2.75;;;2.55;;
669;SDS011;317;48.758;9.302;2022-08-25T14:20:06;2.67;;;2.47;;
669;SDS011;317;48.758;9.302;2022-08-25T14:22:49;2.72;;;2.53;;
669;SDS011;317;48.758;9.302;2022-08-25T14:25:20;3.35;;;2.65;;
669;SDS011;317;48.758;9.302;2022-08-25T14:27:53;4.05;;;2.70;;
669;SDS011;317;48.758;9.302;2022-08-25T14:30:21;3.38;;;2.58;;
669;SDS011;317;48.758;9.302;2022-08-25T14:32:48;17.88;;;3.00;;
669;SDS011;317;48.758;9.302;2022-08-25T14:35:15;2.67;;;2.40;;
669;SDS011;317;48.758;9.302;2022-08-25T14:37:42;2.67;;;2.53;;
669;SDS011;317;48.758;9.302;2022-08-25T14:40:10;4.65;;;2.80;;
669;SDS011;317;48.758;9.302;2022-08-25T14:42:39;2.33;;;2.22;;
669;SDS011;317;48.758;9.302;2022-08-25T14:45:06;5.40;;;3.00;;
669;SDS011;317;48.758;9.302;2022-08-25T14:47:35;3.55;;;3.10;;
669;SDS011;317;48.758;9.302;2022-08-25T14:50:02;3.30;;;3.00;;
669;SDS011;317;48.758;9.302;2022-08-25T14:52:29;3.13;;;2.88;;
669;SDS011;317;48.758;9.302;2022-08-25T14:54:56;2.83;;;2.63;;
669;SDS011;317;48.758;9.302;2022-08-25T14:57:23;5.13;;;2.58;;
669;SDS011;317;48.758;9.302;2022-08-25T14:59:50;5.32;;;2.88;;
669;SDS011;317;48.758;9.302;2022-08-25T15:02:17;2.88;;;2.70;;
669;SDS011;317;48.758;9.302;2022-08-25T15:04:48;3.13;;;2.85;;
669;SDS011;317;48.758;9.302;2022-08-25T15:07:17;3.10;;;2.90;;
669;SDS011;317;48.758;9.302;2022-08-25T15:10:02;3.45;;;3.25;;
669;SDS011;317;48.758;9.302;2022-08-25T15:12:30;3.13;;;2.92;;
669;SDS011;317;48.758;9.302;2022-08-25T15:14:56;3.03;;;2.83;;
669;SDS011;317;48.758;9.302;2022-08-25T15:17:23;4.28;;;2.88;;
669;SDS011;317;48.758;9.302;2022-08-25T15:19:51;3.28;;;2.85;;
669;SDS011;317;48.758;9.302;2022-08-25T15:22:18;3.72;;;3.42;;
669;SDS011;317;48.758;9.302;2022-08-25T15:24:45;3.05;;;2.85;;
669;SDS011;317;48.758;9.302;2022-08-25T15:27:17;3.00;;;2.80;;
669;SDS011;317;48.758;9.302;2022-08-25T15:29:45;3.83;;;2.70;;
669;SDS011;317;48.758;9.302;2022-08-25T15:32:12;3.88;;;2.65;;
669;SDS011;317;48.758;9.302;2022-08-25T15:34:39;2.92;;;2.72;;
669;SDS011;317;48.758;9.302;2022-08-25T15:37:09;9.18;;;3.20;;
669;SDS011;317;48.758;9.302;2022-08-25T15:39:37;2.80;;;2.60;;
669;SDS011;317;48.758;9.302;2022-08-25T15:42:07;2.97;;;2.78;;
669;SDS011;317;48.758;9.302;2022-08-25T15:44:36;3.03;;;2.72;;
669;SDS011;317;48.758;9.302;2022-08-25T15:47:03;2.85;;;2.65;;
669;SDS011;317;48.758;9.302;2022-08-25T15:49:30;3.13;;;2.65;;
669;SDS011;317;48.758;9.302;2022-08-25T15:51:57;2.70;;;2.50;;
669;SDS011;317;48.758;9.302;2022-08-25T15:54:25;3.25;;;2.72;;
669;SDS011;317;48.758;9.302;2022-08-25T15:56:53;3.25;;;2.97;;
669;SDS011;317;48.758;9.302;2022-08-25T15:59:21;3.88;;;2.88;;
669;SDS011;317;48.758;9.302;2022-08-25T16:01:48;3.13;;;2.92;;
669;SDS011;317;48.758;9.302;2022-08-25T16:04:17;3.60;;;3.40;;
669;SDS011;317;48.758;9.302;2022-08-25T16:06:44;3.67;;;2.60;;
669;SDS011;317;48.758;9.302;2022-08-25T16:09:12;4.20;;;2.83;;
669;SDS011;317;48.758;9.302;2022-08-25T16:11:40;3.00;;;2.80;;
669;SDS011;317;48.758;9.302;2022-08-25T16:14:07;3.20;;;3.00;;
669;SDS011;317;48.758;9.302;2022-08-25T16:16:35;4.50;;;2.75;;
669;SDS011;317;48.758;9.302;2022-08-25T16:19:03;3.08;;;2.88;;
669;SDS011;317;48.758;9.302;2022-08-25T16:21:31;2.75;;;2.60;;
669;SDS011;317;48.758;9.302;2022-08-25T16:24:02;3.35;;;2.90;;
669;SDS011;317;48.758;9.302;2022-08-25T16:26:30;3.22;;;3.03;;